Flight Track Log - Related Links

Times and Time Zones

All times are in EDT time to prevent confusion due to time zone crossing. See the N157WH flight status page for this flight to view local times or setup timezone preferences in your user account.

Time Position Orientation Groundspeed Altitude Reporting Facility
EDT Latitude Longitude Course Direction KTS MPH feet Rate Location/Type
Tue 11:23:16 AM 25.6425 -80.4061 88° East 173 199 700  Level Miami Center
Tue 11:24:05 AM 25.6439 -80.3508 88° East 233 268 2,100 1,745 Climbing Miami Center
Tue 11:25:06 AM 25.5947 -80.3033 139° Southeast 237 273 3,900 2,545 Climbing Miami Center
Tue 11:27:16 AM 25.4836 -80.2333 150° Southeast 232 267 10,200 2,937 Climbing Miami Center
Tue 11:28:16 AM 25.4086 -80.2244 174° South 245 282 13,200 2,700 Climbing Miami Center
Tue 11:29:16 AM 25.3289 -80.2406 190° South 260 299 15,600 2,250 Climbing Miami Center
Tue 11:30:16 AM 25.2469 -80.2589 191° South 292 336 17,700 1,900 Climbing Miami Center
Tue 11:31:16 AM 25.1547 -80.2703 186° South 313 360 19,400 1,600 Climbing Miami Center
Tue 11:32:16 AM 25.0633 -80.2561 172° South 326 375 20,900 1,550 Climbing Miami Center
Tue 11:33:16 AM 24.9656 -80.2397 171° South 348 400 22,500 1,600 Climbing Miami Center
Tue 11:34:16 AM 24.8672 -80.2439 182° South 355 409 24,100 1,450 Climbing Miami Center
Tue 11:35:16 AM 24.7703 -80.2825 200° South 355 409 25,400 1,300 Climbing Miami Center
Tue 11:36:16 AM 24.6753 -80.3208 200° South 361 415 26,700 1,250 Climbing Miami Center
Tue 11:37:16 AM 24.5761 -80.3594 199° South 373 429 27,900 1,050 Climbing Miami Center
Tue 11:38:16 AM 24.4644 -80.4064 201° Southwest 378 435 28,800 1,000 Climbing Miami Center
Tue 11:39:16 AM 24.3611 -80.4444 199° South 389 448 29,900 1,100 Climbing Miami Center
Tue 11:41:00 AM 24.1708 -80.4712 194° South  Level FlightAware Approximate
Tue 11:48:00 AM 23.4295 -80.6859 195° South  Level FlightAware Approximate
Tue 11:49:00 AM 23.3238 -80.7171 195° South  Level FlightAware Approximate
Tue 11:50:00 AM 23.2180 -80.7483 195° South  Level FlightAware Approximate
Tue 11:51:00 AM 23.1123 -80.7794 195° South  Level FlightAware Approximate
Tue 11:52:00 AM 23.0065 -80.8104 195° South  Level FlightAware Approximate
Tue 11:53:00 AM 22.9007 -80.8414 195° South  Level FlightAware Approximate
Tue 11:54:00 AM 22.7950 -80.8724 195° South  Level FlightAware Approximate
Tue 11:55:00 AM 22.6892 -80.9033 195° South  Level FlightAware Approximate
Tue 11:56:00 AM 22.5834 -80.9342 195° South  Level FlightAware Approximate
Tue 11:57:00 AM 22.4776 -80.9650 195° South  Level FlightAware Approximate
Tue 11:58:00 AM 22.3718 -80.9958 195° South  Level FlightAware Approximate
Tue 11:59:00 AM 22.2660 -81.0265 195° South  Level FlightAware Approximate
Tue 12:00:00 PM 22.1602 -81.0571 195° South  Level FlightAware Approximate
Tue 12:01:00 PM 22.0544 -81.0878 195° South  Level FlightAware Approximate
Tue 12:02:00 PM 21.9485 -81.1183 195° South  Level FlightAware Approximate
Tue 12:03:00 PM 21.8427 -81.1489 195° South  Level FlightAware Approximate
Tue 12:04:00 PM 21.7369 -81.1794 195° South  Level FlightAware Approximate
Tue 12:05:00 PM 21.6310 -81.2098 195° South  Level FlightAware Approximate
Tue 12:06:00 PM 21.5252 -81.2402 195° South  Level FlightAware Approximate
Tue 12:07:00 PM 21.4193 -81.2706 195° South  Level FlightAware Approximate
Tue 12:08:00 PM 21.3134 -81.3001 181° South  Level FlightAware Approximate
Tue 12:09:00 PM 21.2038 -81.3029 181° South  Level FlightAware Approximate
Tue 12:10:00 PM 21.0943 -81.3057 181° South  Level FlightAware Approximate
Tue 12:11:00 PM 20.9848 -81.3085 181° South  Level FlightAware Approximate
Tue 12:12:00 PM 20.8753 -81.3112 181° South  Level FlightAware Approximate
Tue 12:13:00 PM 20.7657 -81.3140 181° South  Level FlightAware Approximate
Tue 12:14:00 PM 20.6562 -81.3168 181° South  Level FlightAware Approximate
Tue 12:15:00 PM 20.5467 -81.3196 181° South  Level FlightAware Approximate
Tue 12:16:00 PM 20.4371 -81.3223 181° South  Level FlightAware Approximate
Tue 12:17:00 PM 20.3276 -81.3251 181° South  Level FlightAware Approximate
Tue 12:18:00 PM 20.2181 -81.3279 181° South  Level FlightAware Approximate
Tue 12:19:00 PM 20.1085 -81.3306 181° South  Level FlightAware Approximate
Tue 12:20:00 PM 19.9991 -81.3334 183° South  Level FlightAware Approximate
Tue 12:21:00 PM 19.8896 -81.3385 183° South  Level FlightAware Approximate
Tue 12:22:00 PM 19.7802 -81.3436 183° South  Level FlightAware Approximate
Tue 12:23:00 PM 19.6707 -81.3487 183° South  Level FlightAware Approximate
Tue 12:24:00 PM 19.5613 -81.3538 183° South  Level FlightAware Approximate
Tue 12:25:00 PM 19.4518 -81.3589 183° South  Level FlightAware Approximate
Tue 12:26:00 PM 19.3424 -81.3639 183° South  Level FlightAware Approximate
Tue 12:27:00 PM 19.2336 -81.3573 170° South  Level FlightAware Approximate
Tue 12:28:00 PM 19.1258 -81.3371 170° South  Level FlightAware Approximate
Tue 12:29:00 PM 19.0179 -81.3169 170° South  Level FlightAware Approximate
Tue 12:30:00 PM 18.9100 -81.2968 170° South  Level FlightAware Approximate
Tue 12:31:00 PM 18.8021 -81.2766 170° South  Level FlightAware Approximate
Tue 12:32:00 PM 18.6942 -81.2565 170° South  Level FlightAware Approximate
Tue 12:33:00 PM 18.5863 -81.2364 170° South  Level FlightAware Approximate
Tue 12:34:00 PM 18.4784 -81.2164 170° South  Level FlightAware Approximate
Tue 12:35:00 PM 18.3706 -81.1963 170° South  Level FlightAware Approximate
Tue 12:36:00 PM 18.2626 -81.1763 170° South  Level FlightAware Approximate
Tue 12:37:00 PM 18.1548 -81.1563 170° South  Level FlightAware Approximate
Tue 12:38:00 PM 18.0469 -81.1364 170° South  Level FlightAware Approximate
Tue 12:39:00 PM 17.9389 -81.1164 170° South  Level FlightAware Approximate
Tue 12:40:00 PM 17.8310 -81.0966 170° South  Level FlightAware Approximate
Tue 12:41:00 PM 17.7230 -81.0774 170° South  Level FlightAware Approximate
Tue 12:42:00 PM 17.6150 -81.0582 170° South  Level FlightAware Approximate
Tue 12:43:00 PM 17.5070 -81.0390 170° South  Level FlightAware Approximate
Tue 12:44:00 PM 17.3990 -81.0199 170° South  Level FlightAware Approximate
Tue 12:45:00 PM 17.2909 -81.0007 170° South  Level FlightAware Approximate
Tue 12:46:00 PM 17.1829 -80.9816 170° South  Level FlightAware Approximate
Tue 12:47:00 PM 17.0749 -80.9625 170° South  Level FlightAware Approximate
Tue 12:48:00 PM 16.9669 -80.9435 170° South  Level FlightAware Approximate
Tue 12:49:00 PM 16.8588 -80.9244 170° South  Level FlightAware Approximate
Tue 12:50:00 PM 16.7508 -80.9054 170° South  Level FlightAware Approximate
Tue 12:51:00 PM 16.6428 -80.8864 170° South  Level FlightAware Approximate
Tue 12:52:00 PM 16.5347 -80.8674 170° South  Level FlightAware Approximate
Tue 12:53:00 PM 16.4267 -80.8484 170° South  Level FlightAware Approximate
Tue 12:54:00 PM 16.3186 -80.8295 170° South  Level FlightAware Approximate
Tue 12:55:00 PM 16.2106 -80.8106 170° South  Level FlightAware Approximate
Tue 12:56:00 PM 16.1026 -80.7917 170° South  Level FlightAware Approximate
Tue 12:57:00 PM 15.9945 -80.7728 170° South  Level FlightAware Approximate
Tue 12:58:00 PM 15.8865 -80.7539 170° South  Level FlightAware Approximate
Tue 12:59:00 PM 15.7784 -80.7351 170° South  Level FlightAware Approximate
Tue 01:00:00 PM 15.6704 -80.7163 170° South  Level FlightAware Approximate
Tue 01:01:00 PM 15.5623 -80.6975 170° South  Level FlightAware Approximate
Tue 01:02:00 PM 15.4543 -80.6787 170° South  Level FlightAware Approximate
Tue 01:03:00 PM 15.3462 -80.6600 170° South  Level FlightAware Approximate
Tue 01:04:00 PM 15.2382 -80.6412 171° South  Level FlightAware Approximate
Tue 01:05:00 PM 15.1301 -80.6225 171° South  Level FlightAware Approximate
Tue 01:06:00 PM 15.0220 -80.6038 171° South  Level FlightAware Approximate
Tue 01:07:00 PM 14.9139 -80.5859 171° South  Level FlightAware Approximate
Tue 01:08:00 PM 14.8057 -80.5683 171° South  Level FlightAware Approximate
Tue 01:09:00 PM 14.6974 -80.5506 171° South  Level FlightAware Approximate
Tue 01:10:00 PM 14.5892 -80.5330 171° South  Level FlightAware Approximate
Tue 01:11:00 PM 14.4810 -80.5154 171° South  Level FlightAware Approximate
Tue 01:12:00 PM 14.3728 -80.4977 171° South  Level FlightAware Approximate
Tue 01:13:00 PM 14.2646 -80.4802 171° South  Level FlightAware Approximate
Tue 01:14:00 PM 14.1563 -80.4626 171° South  Level FlightAware Approximate
Tue 01:15:00 PM 14.0481 -80.4451 171° South  Level FlightAware Approximate
Tue 01:16:00 PM 13.9399 -80.4275 171° South  Level FlightAware Approximate
Tue 01:17:00 PM 13.8316 -80.4100 171° South  Level FlightAware Approximate
Tue 01:18:00 PM 13.7234 -80.3925 171° South  Level FlightAware Approximate
Tue 01:19:00 PM 13.6153 -80.3743 170° South  Level FlightAware Approximate
Tue 01:20:00 PM 13.5073 -80.3552 170° South  Level FlightAware Approximate
Tue 01:21:00 PM 13.3994 -80.3361 170° South  Level FlightAware Approximate
Tue 01:22:00 PM 13.2914 -80.3171 170° South  Level FlightAware Approximate
Tue 01:23:00 PM 13.1834 -80.2980 170° South  Level FlightAware Approximate
Tue 01:24:00 PM 13.0754 -80.2790 170° South  Level FlightAware Approximate
Tue 01:25:00 PM 12.9674 -80.2600 170° South  Level FlightAware Approximate
Tue 01:26:00 PM 12.8595 -80.2410 170° South  Level FlightAware Approximate
Tue 01:27:00 PM 12.7515 -80.2221 170° South  Level FlightAware Approximate
Tue 01:28:00 PM 12.6435 -80.2031 170° South  Level FlightAware Approximate
Tue 01:29:00 PM 12.5355 -80.1842 170° South  Level FlightAware Approximate
Tue 01:30:00 PM 12.4275 -80.1653 170° South  Level FlightAware Approximate
Tue 01:31:00 PM 12.3195 -80.1464 170° South  Level FlightAware Approximate
Tue 01:32:00 PM 12.2115 -80.1275 170° South  Level FlightAware Approximate
Tue 01:33:00 PM 12.1035 -80.1086 170° South  Level FlightAware Approximate
Tue 01:34:00 PM 11.9956 -80.0898 170° South  Level FlightAware Approximate
Tue 01:35:00 PM 11.8876 -80.0709 170° South  Level FlightAware Approximate
Tue 01:36:00 PM 11.7796 -80.0521 170° South  Level FlightAware Approximate
Tue 01:37:00 PM 11.6716 -80.0333 170° South  Level FlightAware Approximate
Tue 01:38:00 PM 11.5636 -80.0145 170° South  Level FlightAware Approximate
Tue 01:39:00 PM 11.4556 -79.9957 170° South  Level FlightAware Approximate
Tue 01:40:00 PM 11.3476 -79.9770 170° South  Level FlightAware Approximate
Tue 01:41:00 PM 11.2396 -79.9582 170° South  Level FlightAware Approximate
Tue 01:42:00 PM 11.1316 -79.9395 170° South  Level FlightAware Approximate
Tue 01:43:00 PM 11.0236 -79.9208 170° South  Level FlightAware Approximate
Tue 01:44:00 PM 10.9152 -79.9045 172° South  Level FlightAware Approximate
Tue 01:45:00 PM 10.8067 -79.8890 172° South  Level FlightAware Approximate
Tue 01:46:00 PM 10.6982 -79.8736 172° South  Level FlightAware Approximate
Tue 01:47:00 PM 10.5899 -79.8580 169° South  Level FlightAware Approximate
Tue 01:48:00 PM 10.4824 -79.8365 169° South  Level FlightAware Approximate
Tue 01:49:00 PM 10.3749 -79.8150 169° South  Level FlightAware Approximate
Tue 01:50:00 PM 10.2668 -79.8000 180° South  Level FlightAware Approximate
Tue 01:51:00 PM 10.1587 -79.7851 169° South  Level FlightAware Approximate
Tue 01:52:00 PM 10.0512 -79.7636 169° South  Level FlightAware Approximate
Tue 01:53:00 PM 9.9435 -79.7435 171° South  Level FlightAware Approximate
Tue 01:54:00 PM 9.8353 -79.7260 171° South  Level FlightAware Approximate
Tue 01:55:00 PM 9.7271 -79.7084 171° South  Level FlightAware Approximate
Tue 01:56:00 PM 9.6189 -79.6909 171° South  Level FlightAware Approximate
Tue 01:57:00 PM 9.5107 -79.6733 171° South  Level FlightAware Approximate
Tue 01:58:00 PM 9.4026 -79.6558 171° South  Level FlightAware Approximate
Tue 01:59:00 PM 9.2948 -79.6356 169° South  Level FlightAware Approximate
Tue 02:00:00 PM 9.1873 -79.6145 171° South  Level FlightAware Approximate
Tue 02:01:00 PM 9.0792 -79.5965 171° South  Level FlightAware Approximate
Tue 02:02:00 PM 8.9708 -79.5804 174° South  Level FlightAware Approximate
Tue 02:03:00 PM 8.9733 -79.5556 174° South  Level Estimated
Tue 02:04:00 PM 8.9733 -79.5556 North  Level Estimated
Tue 02:05:00 PM 8.9733 -79.5556 11° North  Level Estimated
Tue 02:06:00 PM 8.9733 -79.5556 11° North  Level Estimated
Tue 02:07:00 PM 8.9733 -79.5556 11° North  Level Estimated
Tue 02:08:00 PM 8.9733 -79.5556 11° North  Level Estimated
Tue 02:09:00 PM 8.9733 -79.5556 11° North  Level Estimated
Tue 02:10:00 PM 8.9733 -79.5556 11° North  Level Estimated
Tue 02:11:00 PM 8.9733 -79.5556 11° North  Level Estimated
Tue 02:12:00 PM 8.9733 -79.5556 11° North  Level Estimated
Tue 02:13:00 PM 8.9733 -79.5556 11° North  Level Estimated
Tue 02:14:00 PM 8.9733 -79.5556 11° North  Level Estimated
Tue 02:15:00 PM 8.9733 -79.5556 11° North  Level Estimated
Tue 02:16:00 PM 8.9733 -79.5556 11° North  Level Estimated
Tue 02:17:00 PM 8.9733 -79.5556 11° North  Level Estimated
Tue 02:18:00 PM 8.9733 -79.5556 11° North  Level Estimated
Tue 02:19:00 PM 8.9733 -79.5556 11° North  Level Estimated

Login

Don't have an account? Register now (free) for customized features, flight alerts, and more!